Time;durP1;ratioP1;P1;durP2;ratioP2;P2;SDS_P1;SDS_P2;PMS_P1;PMS_P2;Temp;Humidity;BMP_temperature;BMP_pressure;BME280_temperature;BME280_humidity;BME280_pressure;Samples;Min_cycle;Max_cycle;Signal;HPM_P1;HPM_P2
2023/10/21 00:01:58;;;;;;;0.40;0.40;;;13.70;69.20;;;;;;5033806;28;20065;-80
2023/10/21 00:04:24;;;;;;;1.40;0.73;;;13.70;69.60;;;;;;5040406;28;20040;-79
2023/10/21 00:06:49;;;;;;;0.50;0.50;;;13.70;70.10;;;;;;5033948;28;20021;-79
2023/10/21 00:09:15;;;;;;;0.60;0.60;;;13.80;70.50;;;;;;5031655;28;20489;-79
2023/10/21 00:11:40;;;;;;;0.40;0.40;;;13.90;70.90;;;;;;5032693;28;20430;-78
2023/10/21 00:14:06;;;;;;;0.50;0.50;;;14.00;71.20;;;;;;5036070;28;20492;-79
2023/10/21 00:16:32;;;;;;;0.50;0.50;;;14.10;71.30;;;;;;5043546;28;20170;-79
2023/10/21 00:18:58;;;;;;;0.60;0.60;;;14.20;71.40;;;;;;5051406;28;20634;-79
2023/10/21 00:21:23;;;;;;;0.40;0.40;;;14.20;71.30;;;;;;5032760;28;20152;-80
2023/10/21 00:23:50;;;;;;;0.40;0.40;;;14.30;71.20;;;;;;5031564;28;20022;-77
2023/10/21 00:26:16;;;;;;;0.40;0.40;;;14.20;70.90;;;;;;5031653;28;20084;-79
2023/10/21 00:28:42;;;;;;;0.50;0.50;;;14.20;70.60;;;;;;5031261;28;20026;-79
2023/10/21 00:31:07;;;;;;;0.85;0.85;;;14.20;70.30;;;;;;5034580;28;20037;-79
2023/10/21 00:33:33;;;;;;;0.40;0.40;;;14.20;70.20;;;;;;5062940;28;20025;-79
2023/10/21 00:35:59;;;;;;;0.60;0.60;;;14.20;70.20;;;;;;5075290;28;20113;-79
2023/10/21 00:38:25;;;;;;;0.50;0.50;;;14.20;70.30;;;;;;5049822;28;20025;-79
2023/10/21 00:40:52;;;;;;;0.75;0.75;;;14.30;70.50;;;;;;5033949;28;20029;-77
2023/10/21 00:43:38;;;;;;;0.50;0.50;;;14.30;70.80;;;;;;5038227;28;20071;-78
2023/10/21 00:46:20;;;;;;;0.40;0.40;;;14.30;71.10;;;;;;5040993;28;20477;-79
2023/10/21 00:48:46;;;;;;;0.40;0.40;;;14.40;71.20;;;;;;5034980;28;20033;-79
2023/10/21 00:51:12;;;;;;;1.95;1.23;;;14.40;71.10;;;;;;5035153;28;20099;-79
2023/10/21 00:53:38;;;;;;;0.98;0.85;;;14.40;71.10;;;;;;5035025;28;20048;-79
2023/10/21 00:56:06;;;;;;;0.40;0.40;;;14.40;71.10;;;;;;5034930;28;20034;-79
2023/10/21 00:58:32;;;;;;;0.50;0.50;;;14.50;71.10;;;;;;5035043;28;20553;-79
2023/10/21 01:01:02;;;;;;;0.45;0.45;;;14.50;71.00;;;;;;5034666;28;20037;-79
2023/10/21 01:03:29;;;;;;;0.50;0.50;;;14.50;70.90;;;;;;5038957;28;20107;-80
2023/10/21 01:05:55;;;;;;;0.30;0.30;;;14.50;70.80;;;;;;5046929;28;20037;-77
2023/10/21 01:08:21;;;;;;;0.50;0.50;;;14.60;70.70;;;;;;5034574;28;20056;-80
2023/10/21 01:10:47;;;;;;;0.50;0.50;;;14.60;70.80;;;;;;5032090;28;20037;-80
2023/10/21 01:13:12;;;;;;;0.35;0.35;;;14.60;70.80;;;;;;5034373;28;20036;-80
2023/10/21 01:15:38;;;;;;;0.52;0.52;;;14.60;70.70;;;;;;5034663;28;20120;-80
2023/10/21 01:18:04;;;;;;;0.40;0.40;;;14.60;70.80;;;;;;5034336;28;20052;-79
2023/10/21 01:20:30;;;;;;;0.40;0.40;;;14.70;70.90;;;;;;5034464;28;20362;-79
2023/10/21 01:23:02;;;;;;;0.40;0.40;;;14.70;71.10;;;;;;5034454;28;20021;-80
2023/10/21 01:25:28;;;;;;;0.47;0.47;;;14.80;71.20;;;;;;5034143;28;20517;-80
2023/10/21 01:27:54;;;;;;;0.40;0.40;;;14.80;71.20;;;;;;5041972;28;20370;-78
2023/10/21 01:30:21;;;;;;;0.50;0.50;;;14.90;71.30;;;;;;5046745;28;20500;-80
2023/10/21 01:32:47;;;;;;;0.55;0.55;;;14.90;71.20;;;;;;5057266;28;20106;-79
2023/10/21 01:35:13;;;;;;;0.40;0.40;;;15.00;71.10;;;;;;5074458;28;20059;-80
2023/10/21 01:37:39;;;;;;;0.40;0.40;;;15.00;71.10;;;;;;5062752;28;20022;-79
2023/10/21 01:40:06;;;;;;;0.40;0.40;;;15.00;71.20;;;;;;5034141;28;20440;-79
2023/10/21 01:42:34;;;;;;;0.40;0.40;;;15.10;71.30;;;;;;5032708;28;20503;-80
2023/10/21 01:44:59;;;;;;;0.50;0.50;;;15.10;71.30;;;;;;5034037;28;20033;-79
2023/10/21 01:47:25;;;;;;;0.50;0.50;;;15.20;71.40;;;;;;5032731;28;20033;-80
2023/10/21 01:49:50;;;;;;;0.40;0.40;;;15.20;71.50;;;;;;5043878;28;20036;-77
2023/10/21 01:52:16;;;;;;;0.40;0.40;;;15.30;71.50;;;;;;5054608;28;20086;-80
2023/10/21 01:54:43;;;;;;;0.50;0.50;;;15.40;71.60;;;;;;5054217;28;20021;-79
2023/10/21 01:57:09;;;;;;;0.40;0.40;;;15.40;71.60;;;;;;5051901;28;20037;-80
2023/10/21 01:59:39;;;;;;;0.40;0.40;;;15.50;71.50;;;;;;5042647;28;20408;-80
2023/10/21 02:02:05;;;;;;;0.40;0.40;;;15.50;71.50;;;;;;5054161;28;20033;-80
2023/10/21 02:04:31;;;;;;;0.40;0.40;;;15.50;71.50;;;;;;5040136;28;20017;-76
2023/10/21 02:06:56;;;;;;;0.50;0.50;;;15.60;71.50;;;;;;5034339;28;20033;-79
2023/10/21 02:09:22;;;;;;;0.40;0.40;;;15.70;71.50;;;;;;5033839;28;20488;-79
2023/10/21 02:11:47;;;;;;;0.50;0.50;;;15.70;71.50;;;;;;5032480;28;20520;-79
2023/10/21 02:14:13;;;;;;;0.40;0.40;;;15.80;71.50;;;;;;5033724;28;20033;-79
2023/10/21 02:16:39;;;;;;;0.60;0.60;;;15.80;71.40;;;;;;5047500;28;20065;-79
2023/10/21 02:19:04;;;;;;;0.60;0.60;;;15.80;71.50;;;;;;5053734;28;20017;-79
2023/10/21 02:21:30;;;;;;;0.40;0.40;;;15.80;71.50;;;;;;5053961;28;20060;-80
2023/10/21 02:23:55;;;;;;;0.40;0.40;;;15.90;71.60;;;;;;5053437;28;20029;-79
2023/10/21 02:26:21;;;;;;;0.50;0.50;;;15.90;71.60;;;;;;5053379;28;20106;-80
2023/10/21 02:28:47;;;;;;;0.40;0.40;;;16.00;71.70;;;;;;5054222;28;20036;-79
2023/10/21 02:31:12;;;;;;;0.60;0.60;;;16.00;71.70;;;;;;5053909;28;20395;-77
2023/10/21 02:33:38;;;;;;;0.75;0.75;;;16.00;71.80;;;;;;5068090;28;20032;-79
2023/10/21 02:36:04;;;;;;;0.40;0.40;;;16.10;71.80;;;;;;5074091;28;20032;-79
2023/10/21 02:38:30;;;;;;;0.55;0.55;;;16.10;71.80;;;;;;5047120;28;20155;-80
2023/10/21 02:40:55;;;;;;;0.52;0.52;;;16.20;71.80;;;;;;5033132;28;20120;-70
2023/10/21 02:43:21;;;;;;;0.30;0.30;;;16.20;71.90;;;;;;5032671;28;20033;-71
2023/10/21 02:45:48;;;;;;;0.40;0.40;;;16.20;71.80;;;;;;5033605;28;20519;-71
2023/10/21 02:48:14;;;;;;;0.43;0.43;;;16.30;71.90;;;;;;5032555;28;20151;-69
2023/10/21 02:50:40;;;;;;;1.08;0.75;;;16.30;71.90;;;;;;5032947;28;20064;-69
2023/10/21 02:53:05;;;;;;;0.45;0.45;;;16.30;71.80;;;;;;5047839;28;20432;-70
2023/10/21 02:55:32;;;;;;;0.50;0.50;;;16.40;71.90;;;;;;5052568;28;20090;-71
2023/10/21 02:57:58;;;;;;;0.60;0.60;;;16.40;71.90;;;;;;5037505;28;20058;-70
2023/10/21 03:00:23;;;;;;;0.73;0.73;;;16.40;71.90;;;;;;5046042;28;20037;-69
2023/10/21 03:02:49;;;;;;;0.50;0.50;;;16.40;72.00;;;;;;5050947;28;20029;-70
2023/10/21 03:05:15;;;;;;;0.63;0.63;;;16.50;71.90;;;;;;5052298;28;20033;-71
2023/10/21 03:07:42;;;;;;;0.40;0.40;;;16.50;72.00;;;;;;5049951;28;20033;-70
2023/10/21 03:10:08;;;;;;;0.38;0.38;;;16.50;72.10;;;;;;5041233;28;20022;-70
2023/10/21 03:12:34;;;;;;;0.43;0.43;;;16.50;72.10;;;;;;5032340;28;20028;-70
2023/10/21 03:15:00;;;;;;;0.70;0.70;;;16.60;72.20;;;;;;5032256;28;20028;-70
2023/10/21 03:17:26;;;;;;;0.50;0.50;;;16.60;72.20;;;;;;5030936;28;20037;-70
2023/10/21 03:19:54;;;;;;;0.50;0.50;;;16.70;72.10;;;;;;5032158;28;20033;-70
2023/10/21 03:22:20;;;;;;;0.50;0.50;;;16.70;72.10;;;;;;5032529;28;20453;-70
2023/10/21 03:24:46;;;;;;;0.43;0.43;;;16.70;72.10;;;;;;5032412;28;20047;-70
2023/10/21 03:27:13;;;;;;;0.40;0.40;;;16.80;72.10;;;;;;5048057;28;20120;-70
2023/10/21 03:29:42;;;;;;;0.50;0.50;;;16.80;72.10;;;;;;5051940;28;20024;-70
2023/10/21 03:32:09;;;;;;;0.50;0.50;;;16.80;72.10;;;;;;5047157;28;20106;-70
2023/10/21 03:34:35;;;;;;;0.30;0.30;;;16.80;72.00;;;;;;5050074;28;20028;-70
2023/10/21 03:37:01;;;;;;;0.32;0.32;;;16.80;72.10;;;;;;5031911;28;20030;-70
2023/10/21 03:39:26;;;;;;;0.50;0.50;;;16.90;72.00;;;;;;5039615;28;20031;-70
2023/10/21 03:41:52;;;;;;;0.40;0.40;;;16.90;72.00;;;;;;5042017;28;20116;-72
2023/10/21 03:44:18;;;;;;;0.40;0.40;;;16.90;71.90;;;;;;5031515;28;20445;-72
2023/10/21 03:46:44;;;;;;;0.40;0.40;;;16.90;72.00;;;;;;5035245;28;20044;-73
2023/10/21 03:49:09;;;;;;;0.50;0.50;;;16.90;72.00;;;;;;5042225;28;20025;-72
2023/10/21 03:51:35;;;;;;;0.50;0.50;;;16.90;72.00;;;;;;5045468;28;20029;-74
2023/10/21 03:54:01;;;;;;;0.40;0.40;;;16.90;72.00;;;;;;5045277;28;20054;-74
2023/10/21 03:56:27;;;;;;;0.50;0.50;;;16.90;72.10;;;;;;5031180;28;20049;-73
2023/10/21 03:58:53;;;;;;;0.40;0.40;;;16.90;72.20;;;;;;5031115;28;20071;-75
2023/10/21 04:01:22;;;;;;;0.60;0.60;;;16.90;72.20;;;;;;5031230;28;20060;-75
2023/10/21 04:03:47;;;;;;;0.38;0.38;;;16.90;72.40;;;;;;5031051;28;20025;-75
2023/10/21 04:06:16;;;;;;;0.40;0.40;;;16.90;72.40;;;;;;5031432;28;20079;-77
2023/10/21 04:08:42;;;;;;;0.40;0.40;;;17.00;72.50;;;;;;5034690;28;20040;-77
2023/10/21 04:11:08;;;;;;;0.47;0.47;;;17.00;72.50;;;;;;5046021;28;20116;-77
2023/10/21 04:13:34;;;;;;;0.50;0.50;;;17.00;72.50;;;;;;5033266;28;20021;-76
2023/10/21 04:15:59;;;;;;;0.40;0.40;;;17.10;72.50;;;;;;5033408;28;20100;-76
2023/10/21 04:18:25;;;;;;;0.40;0.40;;;17.10;72.40;;;;;;5031822;28;20035;-77
2023/10/21 04:20:51;;;;;;;0.50;0.50;;;17.10;72.50;;;;;;5033832;28;20029;-77
2023/10/21 04:23:17;;;;;;;0.60;0.60;;;17.20;72.60;;;;;;5033007;28;20374;-78
2023/10/21 04:25:45;;;;;;;0.40;0.40;;;17.20;72.70;;;;;;5036333;28;20091;-77
2023/10/21 04:28:11;;;;;;;0.40;0.40;;;17.20;72.60;;;;;;5051948;28;20029;-75
2023/10/21 04:30:37;;;;;;;0.45;0.45;;;17.30;72.70;;;;;;5050892;28;20499;-76
2023/10/21 04:33:03;;;;;;;0.50;0.50;;;17.30;72.60;;;;;;5052741;28;20457;-78
2023/10/21 04:35:29;;;;;;;0.40;0.40;;;17.30;72.70;;;;;;5052062;28;20104;-74
2023/10/21 04:37:59;;;;;;;0.50;0.50;;;17.30;72.60;;;;;;5044217;28;20026;-78
2023/10/21 04:40:24;;;;;;;0.40;0.40;;;17.30;72.70;;;;;;5032569;28;20510;-78
2023/10/21 04:42:50;;;;;;;0.40;0.40;;;17.30;72.70;;;;;;5031318;28;20116;-78
2023/10/21 04:45:15;;;;;;;0.50;0.50;;;17.30;72.70;;;;;;5031474;28;20515;-78
2023/10/21 04:47:41;;;;;;;0.40;0.40;;;17.30;72.60;;;;;;5031668;28;20531;-78
2023/10/21 04:50:07;;;;;;;0.50;0.50;;;17.30;72.60;;;;;;5031207;28;20026;-78
2023/10/21 04:52:33;;;;;;;0.52;0.52;;;17.30;72.60;;;;;;5031436;28;20030;-78
2023/10/21 04:54:58;;;;;;;0.50;0.50;;;17.30;72.60;;;;;;5031473;28;20022;-79
2023/10/21 04:57:24;;;;;;;0.40;0.40;;;17.30;72.50;;;;;;5031635;28;20045;-79
2023/10/21 04:59:50;;;;;;;0.43;0.43;;;17.40;72.60;;;;;;5031466;28;20024;-78
2023/10/21 05:02:15;;;;;;;0.40;0.40;;;17.40;72.50;;;;;;5029776;28;20037;-70
2023/10/21 05:04:41;;;;;;;0.40;0.40;;;17.40;72.60;;;;;;5029577;28;20033;-70
2023/10/21 05:07:07;;;;;;;0.40;0.40;;;17.40;72.60;;;;;;5031136;28;20038;-71
2023/10/21 05:09:33;;;;;;;0.50;0.50;;;17.40;72.50;;;;;;5031036;28;20095;-70
2023/10/21 05:12:00;;;;;;;0.40;0.40;;;17.40;72.40;;;;;;5029657;28;20037;-70
2023/10/21 05:14:25;;;;;;;0.47;0.47;;;17.40;72.50;;;;;;5030710;28;20037;-71
2023/10/21 05:16:51;;;;;;;0.40;0.40;;;17.50;72.40;;;;;;5033805;28;20072;-71
2023/10/21 05:19:17;;;;;;;0.40;0.40;;;17.40;72.30;;;;;;5034491;28;20491;-69
2023/10/21 05:21:43;;;;;;;0.40;0.40;;;17.50;72.40;;;;;;5034812;28;20076;-70
2023/10/21 05:24:09;;;;;;;0.40;0.40;;;17.50;72.50;;;;;;5034188;28;20113;-70
2023/10/21 05:26:34;;;;;;;0.40;0.40;;;17.50;72.40;;;;;;5034932;28;20104;-70
2023/10/21 05:29:00;;;;;;;0.40;0.40;;;17.50;72.40;;;;;;5034228;28;20029;-71
2023/10/21 05:31:25;;;;;;;0.40;0.40;;;17.50;72.30;;;;;;5034368;28;20033;-72
2023/10/21 05:33:51;;;;;;;0.40;0.40;;;17.50;72.30;;;;;;5049485;28;20025;-72
2023/10/21 05:36:17;;;;;;;0.40;0.40;;;17.50;72.10;;;;;;5054408;28;20032;-71
2023/10/21 05:38:43;;;;;;;0.40;0.40;;;17.50;72.10;;;;;;5039490;28;20524;-71
2023/10/21 05:41:08;;;;;;;0.50;0.50;;;17.50;72.20;;;;;;5034559;28;20111;-71
2023/10/21 05:43:34;;;;;;;0.43;0.43;;;17.50;72.20;;;;;;5034077;28;20496;-71
2023/10/21 05:46:03;;;;;;;0.40;0.40;;;17.50;72.20;;;;;;5034263;28;20047;-71
2023/10/21 05:48:29;;;;;;;0.40;0.40;;;17.50;72.20;;;;;;5033895;28;20092;-71
2023/10/21 05:51:01;;;;;;;0.50;0.50;;;17.50;72.20;;;;;;5034051;28;20037;-72
2023/10/21 05:53:27;;;;;;;0.40;0.40;;;17.50;72.30;;;;;;5032483;28;20028;-71
2023/10/21 05:55:57;;;;;;;0.40;0.40;;;17.50;72.30;;;;;;5034076;28;20038;-71
2023/10/21 05:58:26;;;;;;;0.50;0.50;;;17.60;72.40;;;;;;5032374;28;20129;-71
2023/10/21 06:00:52;;;;;;;0.40;0.40;;;17.60;72.40;;;;;;5033961;28;20409;-72
2023/10/21 06:03:17;;;;;;;0.40;0.40;;;17.70;72.20;;;;;;5044146;28;20017;-72
2023/10/21 06:05:43;;;;;;;0.40;0.40;;;17.60;72.10;;;;;;5053968;28;20465;-72
2023/10/21 06:08:09;;;;;;;0.50;0.50;;;17.60;72.00;;;;;;5053414;28;20031;-72
2023/10/21 06:10:36;;;;;;;0.43;0.43;;;17.60;71.90;;;;;;5053545;28;20057;-73
2023/10/21 06:13:01;;;;;;;0.40;0.40;;;17.50;72.00;;;;;;5050143;28;20493;-73
2023/10/21 06:15:27;;;;;;;0.40;0.40;;;17.50;72.10;;;;;;5052081;28;20036;-73
2023/10/21 06:17:53;;;;;;;0.40;0.40;;;17.50;72.10;;;;;;5053034;28;20029;-73
2023/10/21 06:20:18;;;;;;;0.60;0.60;;;17.50;72.20;;;;;;5051991;28;20028;-73
2023/10/21 06:22:44;;;;;;;0.40;0.40;;;17.50;72.30;;;;;;5049398;28;20366;-73
2023/10/21 06:25:10;;;;;;;0.50;0.50;;;17.50;72.30;;;;;;5053221;28;20052;-73
2023/10/21 06:27:37;;;;;;;0.40;0.40;;;17.40;72.30;;;;;;5051921;28;20025;-72
2023/10/21 06:30:03;;;;;;;0.40;0.40;;;17.50;72.40;;;;;;5053161;28;20100;-72
2023/10/21 06:32:30;;;;;;;0.40;0.40;;;17.50;72.60;;;;;;5049359;28;20045;-72
2023/10/21 06:34:55;;;;;;;0.50;0.50;;;17.50;72.60;;;;;;5053038;28;20021;-73
2023/10/21 06:37:21;;;;;;;0.50;0.50;;;17.50;72.60;;;;;;5049749;28;20032;-73
2023/10/21 06:39:47;;;;;;;0.40;0.40;;;17.50;72.50;;;;;;5033228;28;20103;-72
2023/10/21 06:42:13;;;;;;;0.50;0.50;;;17.50;72.50;;;;;;5033273;28;20044;-72
2023/10/21 06:44:39;;;;;;;0.40;0.40;;;17.50;72.50;;;;;;5051729;28;20024;-71
2023/10/21 06:47:04;;;;;;;0.40;0.40;;;17.50;72.30;;;;;;5052399;28;20066;-72
2023/10/21 06:49:30;;;;;;;0.40;0.40;;;17.50;72.40;;;;;;5051469;28;20116;-71
2023/10/21 06:51:57;;;;;;;0.50;0.50;;;17.50;72.40;;;;;;5049887;28;20127;-72
2023/10/21 06:54:23;;;;;;;0.40;0.40;;;17.50;72.60;;;;;;5051170;28;20029;-71
2023/10/21 06:56:49;;;;;;;0.40;0.40;;;17.50;72.60;;;;;;5055201;28;20037;-71
2023/10/21 06:59:15;;;;;;;0.40;0.40;;;17.50;72.80;;;;;;5039315;28;20452;-72
2023/10/21 07:01:41;;;;;;;0.40;0.40;;;17.60;72.90;;;;;;5032002;28;20035;-72
2023/10/21 07:04:09;;;;;;;0.55;0.55;;;17.60;72.90;;;;;;5047994;28;20036;-72
2023/10/21 07:06:38;;;;;;;0.40;0.40;;;17.60;72.90;;;;;;5043414;28;20357;-71
2023/10/21 07:09:04;;;;;;;0.40;0.40;;;17.60;72.90;;;;;;5033645;28;20108;-71
2023/10/21 07:11:30;;;;;;;0.40;0.40;;;17.60;72.90;;;;;;5032158;28;20099;-71
2023/10/21 07:13:56;;;;;;;0.50;0.50;;;17.60;72.80;;;;;;5044569;28;20542;-71
2023/10/21 07:16:21;;;;;;;0.40;0.40;;;17.60;72.80;;;;;;5048511;28;20033;-71
2023/10/21 07:18:48;;;;;;;0.40;0.40;;;17.70;72.90;;;;;;5047741;28;20543;-71
2023/10/21 07:21:16;;;;;;;0.40;0.40;;;17.70;73.00;;;;;;5039095;28;20378;-78
2023/10/21 07:23:42;;;;;;;0.50;0.50;;;17.80;73.00;;;;;;5044080;28;20033;-77
2023/10/21 07:26:08;;;;;;;0.40;0.40;;;17.80;73.10;;;;;;5038538;28;20040;-78
2023/10/21 07:28:33;;;;;;;0.47;0.47;;;17.80;73.10;;;;;;5046840;28;20087;-78
2023/10/21 07:31:00;;;;;;;0.40;0.40;;;17.80;73.30;;;;;;5051929;28;20056;-77
2023/10/21 07:33:27;;;;;;;0.50;0.50;;;17.90;73.20;;;;;;5041159;28;20440;-78
2023/10/21 07:35:53;;;;;;;0.40;0.40;;;18.00;73.40;;;;;;5051778;28;20045;-79
2023/10/21 07:38:20;;;;;;;1.27;1.05;;;18.10;73.60;;;;;;5048140;28;20017;-78
2023/10/21 07:40:47;;;;;;;0.40;0.40;;;18.20;73.50;;;;;;5051654;28;20131;-79
2023/10/21 07:43:16;;;;;;;0.40;0.40;;;18.20;73.60;;;;;;5045653;28;20424;-79
2023/10/21 07:45:42;;;;;;;0.47;0.47;;;18.30;73.90;;;;;;5050643;28;20473;-79
2023/10/21 07:48:07;;;;;;;0.38;0.38;;;18.50;74.00;;;;;;5049061;28;20037;-78
2023/10/21 07:50:33;;;;;;;0.40;0.40;;;18.60;73.70;;;;;;5048187;28;20055;-79
2023/10/21 07:52:59;;;;;;;0.45;0.45;;;18.70;73.50;;;;;;5040212;28;20389;-78
2023/10/21 07:55:25;;;;;;;0.57;0.57;;;18.70;73.30;;;;;;5040996;28;20523;-78
2023/10/21 07:57:50;;;;;;;0.40;0.40;;;18.70;73.40;;;;;;5036124;28;20033;-76
2023/10/21 08:00:16;;;;;;;0.40;0.40;;;18.80;73.00;;;;;;5046231;28;20484;-78
2023/10/21 08:02:42;;;;;;;0.40;0.40;;;18.90;73.10;;;;;;5044912;28;20534;-78
2023/10/21 08:05:08;;;;;;;0.50;0.50;;;18.90;72.80;;;;;;5051172;28;20033;-77
2023/10/21 08:07:35;;;;;;;0.60;0.60;;;18.90;72.90;;;;;;5051102;28;20435;-77
2023/10/21 08:10:04;;;;;;;0.40;0.40;;;18.90;72.60;;;;;;5051257;28;20393;-77
2023/10/21 08:12:32;;;;;;;0.80;0.77;;;18.90;72.80;;;;;;5046892;28;20039;-77
2023/10/21 08:14:58;;;;;;;0.52;0.52;;;19.00;73.00;;;;;;5051055;28;20028;-77
2023/10/21 08:17:23;;;;;;;0.40;0.40;;;19.00;73.20;;;;;;5051155;28;20468;-78
2023/10/21 08:19:50;;;;;;;0.40;0.40;;;19.10;73.00;;;;;;5033785;28;20105;-78
2023/10/21 08:22:15;;;;;;;0.40;0.40;;;19.10;73.00;;;;;;5030854;28;20059;-75
2023/10/21 08:24:41;;;;;;;0.50;0.50;;;19.20;72.90;;;;;;5050579;28;20060;-74
2023/10/21 08:27:06;;;;;;;0.50;0.50;;;19.20;72.90;;;;;;5051393;28;20096;-77
2023/10/21 08:29:32;;;;;;;0.50;0.50;;;19.20;72.90;;;;;;5050978;28;20037;-78
2023/10/21 08:31:57;;;;;;;0.60;0.60;;;19.20;73.00;;;;;;5048204;28;20065;-70
2023/10/21 08:34:23;;;;;;;0.40;0.40;;;19.30;73.10;;;;;;5062353;28;20055;-70
2023/10/21 08:36:49;;;;;;;0.45;0.45;;;19.40;73.20;;;;;;5068666;28;20029;-71
2023/10/21 08:39:15;;;;;;;0.52;0.52;;;19.40;73.40;;;;;;5040107;28;20480;-70
2023/10/21 08:41:40;;;;;;;0.60;0.60;;;19.50;72.80;;;;;;5062349;28;20107;-70
2023/10/21 08:44:11;;;;;;;0.40;0.40;;;19.50;72.50;;;;;;5046291;28;20033;-71
2023/10/21 08:46:37;;;;;;;0.40;0.40;;;19.50;73.00;;;;;;5050145;28;20087;-70
2023/10/21 08:49:03;;;;;;;0.43;0.43;;;19.60;73.10;;;;;;5053710;28;20040;-70
2023/10/21 08:51:30;;;;;;;0.50;0.50;;;19.70;73.40;;;;;;5064324;28;20036;-70
2023/10/21 08:53:59;;;;;;;0.52;0.52;;;19.80;73.40;;;;;;5060499;28;20539;-70
2023/10/21 08:56:27;;;;;;;0.50;0.50;;;19.90;73.30;;;;;;5055955;28;20472;-70
2023/10/21 08:58:54;;;;;;;0.40;0.40;;;20.00;73.20;;;;;;5056021;28;20119;-70
2023/10/21 09:01:20;;;;;;;0.50;0.50;;;20.10;73.40;;;;;;5061024;28;20048;-70
2023/10/21 09:03:46;;;;;;;0.57;0.57;;;20.20;73.50;;;;;;5060388;28;20024;-73
2023/10/21 09:06:12;;;;;;;0.40;0.40;;;20.30;73.30;;;;;;5059143;28;20128;-70
2023/10/21 09:08:42;;;;;;;0.85;0.80;;;20.40;74.00;;;;;;5053560;28;20076;-69
2023/10/21 09:11:14;;;;;;;0.50;0.50;;;20.90;76.50;;;;;;5047355;28;20039;-71
2023/10/21 09:13:40;;;;;;;0.40;0.40;;;21.50;76.80;;;;;;5054424;28;20506;-71
2023/10/21 09:16:20;;;;;;;0.50;0.50;;;22.10;76.10;;;;;;5061525;28;20419;-72
2023/10/21 09:18:59;;;;;;;0.55;0.55;;;22.40;74.90;;;;;;5040883;28;20025;-71
2023/10/21 09:21:38;;;;;;;0.50;0.50;;;22.70;73.70;;;;;;5065449;28;20036;-71
2023/10/21 09:24:11;;;;;;;0.40;0.40;;;22.70;72.50;;;;;;5040145;28;20056;-71
2023/10/21 09:26:47;;;;;;;0.43;0.43;;;22.60;72.60;;;;;;5050042;28;20538;-70
2023/10/21 09:29:22;;;;;;;0.82;0.82;;;22.70;72.40;;;;;;5038929;28;20138;-70
2023/10/21 09:31:51;;;;;;;0.40;0.40;;;22.80;73.30;;;;;;5059701;28;20040;-71
2023/10/21 09:34:33;;;;;;;0.40;0.40;;;23.10;72.90;;;;;;5049603;28;20061;-72
2023/10/21 09:37:00;;;;;;;0.50;0.50;;;23.20;72.40;;;;;;5051376;28;20033;-71
2023/10/21 09:39:27;;;;;;;0.40;0.40;;;23.30;72.10;;;;;;5038797;28;20041;-70
2023/10/21 09:41:52;;;;;;;0.40;0.40;;;23.50;72.70;;;;;;5051379;28;20510;-72
2023/10/21 09:44:19;;;;;;;4.78;0.77;;;23.80;74.00;;;;;;5051024;28;20021;-71
2023/10/21 09:46:45;;;;;;;0.40;0.40;;;24.20;72.50;;;;;;5053315;28;20029;-71
2023/10/21 09:49:16;;;;;;;0.90;0.45;;;24.30;73.10;;;;;;5054066;28;20063;-70
2023/10/21 09:51:55;;;;;;;0.50;0.50;;;24.30;71.40;;;;;;5065003;28;20082;-70
2023/10/21 09:54:35;;;;;;;0.40;0.40;;;24.20;70.20;;;;;;5049604;28;20032;-70
2023/10/21 09:57:02;;;;;;;0.40;0.40;;;24.20;71.20;;;;;;5052000;28;20189;-70
2023/10/21 09:59:30;;;;;;;0.60;0.60;;;24.20;70.60;;;;;;5052034;28;20025;-70
2023/10/21 10:01:57;;;;;;;0.50;0.50;;;24.30;71.20;;;;;;5043772;28;20174;-71
2023/10/21 10:04:26;;;;;;;0.40;0.40;;;24.40;71.20;;;;;;5047112;28;20029;-69
2023/10/21 10:06:58;;;;;;;0.45;0.45;;;24.40;69.70;;;;;;5052482;28;20055;-69
2023/10/21 10:09:27;;;;;;;0.43;0.43;;;24.20;68.90;;;;;;5050657;28;20067;-69
2023/10/21 10:11:58;;;;;;;0.40;0.40;;;23.80;68.10;;;;;;5051963;28;20064;-70
2023/10/21 10:14:30;;;;;;;0.50;0.50;;;23.40;67.50;;;;;;5047227;28;20503;-69
2023/10/21 10:16:56;;;;;;;0.40;0.40;;;23.00;68.00;;;;;;5042895;28;20036;-69
2023/10/21 10:19:40;;;;;;;0.40;0.40;;;22.70;68.00;;;;;;5052739;28;20013;-69
2023/10/21 10:22:31;;;;;;;0.50;0.50;;;22.30;68.90;;;;;;5058273;28;20028;-69
2023/10/21 10:25:15;;;;;;;0.50;0.50;;;22.00;69.80;;;;;;5049214;28;20029;-69
2023/10/21 10:27:42;;;;;;;0.40;0.40;;;21.80;70.10;;;;;;5044130;28;20037;-69
2023/10/21 10:30:14;;;;;;;0.43;0.43;;;21.70;69.70;;;;;;5052619;28;20151;-69
2023/10/21 10:32:47;;;;;;;13.10;0.85;;;21.50;69.60;;;;;;5047647;28;20496;-69
2023/10/21 10:35:37;;;;;;;0.50;0.50;;;21.30;69.40;;;;;;5053042;28;20013;-69
2023/10/21 10:38:16;;;;;;;0.43;0.43;;;21.10;69.50;;;;;;5048849;28;20024;-69
2023/10/21 10:40:44;;;;;;;0.50;0.50;;;20.80;69.90;;;;;;5058003;28;20474;-69
2023/10/21 10:43:17;;;;;;;0.52;0.52;;;20.80;70.00;;;;;;5047821;28;20016;-69
2023/10/21 10:45:43;;;;;;;0.60;0.60;;;20.70;70.00;;;;;;5050907;28;20369;-69
2023/10/21 10:48:10;;;;;;;0.43;0.43;;;20.70;71.10;;;;;;5049194;28;20086;-69
2023/10/21 10:50:36;;;;;;;0.50;0.50;;;20.70;70.90;;;;;;5038184;28;20083;-75
2023/10/21 10:53:16;;;;;;;0.50;0.50;;;20.70;70.80;;;;;;5047100;28;20024;-74
2023/10/21 10:55:50;;;;;;;0.50;0.50;;;20.80;71.40;;;;;;5040533;28;20135;-74
2023/10/21 10:58:18;;;;;;;0.57;0.57;;;21.00;71.20;;;;;;5050493;28;20372;-74
2023/10/21 11:00:45;;;;;;;0.40;0.40;;;21.10;71.90;;;;;;5040577;28;20083;-75
2023/10/21 11:03:21;;;;;;;0.60;0.60;;;21.30;72.30;;;;;;5057810;28;20031;-75
2023/10/21 11:05:48;;;;;;;0.40;0.40;;;21.50;72.40;;;;;;5051668;28;20540;-75
2023/10/21 11:08:15;;;;;;;0.40;0.40;;;21.50;71.80;;;;;;5044424;28;20483;-75
2023/10/21 11:10:41;;;;;;;0.45;0.45;;;21.50;71.90;;;;;;5060151;28;20362;-74
2023/10/21 11:13:07;;;;;;;0.43;0.43;;;21.50;72.10;;;;;;5040674;28;20088;-74
2023/10/21 11:15:44;;;;;;;0.50;0.50;;;21.60;71.80;;;;;;5041470;28;20035;-75
2023/10/21 11:18:12;;;;;;;0.50;0.50;;;21.70;71.10;;;;;;5045298;28;20029;-76
2023/10/21 11:20:50;;;;;;;0.50;0.50;;;21.70;71.20;;;;;;5057420;28;20059;-75
2023/10/21 11:23:18;;;;;;;0.50;0.50;;;21.70;71.30;;;;;;5044442;28;20488;-75
2023/10/21 11:25:52;;;;;;;0.50;0.50;;;21.80;70.10;;;;;;5035948;28;20033;-74
2023/10/21 11:28:19;;;;;;;0.57;0.57;;;21.70;69.80;;;;;;5036501;28;20025;-73
2023/10/21 11:30:45;;;;;;;0.40;0.40;;;21.70;70.70;;;;;;5052097;28;20457;-74
2023/10/21 11:33:11;;;;;;;0.55;0.55;;;21.80;71.40;;;;;;5047570;28;20020;-73
2023/10/21 11:35:39;;;;;;;0.40;0.40;;;22.10;71.20;;;;;;5042523;28;20503;-74
2023/10/21 11:38:06;;;;;;;0.50;0.50;;;22.30;71.20;;;;;;5035112;28;20068;-74
2023/10/21 11:40:35;;;;;;;0.40;0.40;;;22.50;70.40;;;;;;5052984;28;20029;-73
2023/10/21 11:43:04;;;;;;;0.50;0.50;;;22.60;69.70;;;;;;5044424;28;20027;-75
2023/10/21 11:45:30;;;;;;;0.40;0.40;;;22.80;70.60;;;;;;5047608;28;20029;-75
2023/10/21 11:47:57;;;;;;;0.30;0.30;;;22.80;70.60;;;;;;5042048;28;20033;-75
2023/10/21 11:50:24;;;;;;;0.50;0.50;;;23.00;71.30;;;;;;5046679;28;20040;-74
2023/10/21 11:52:53;;;;;;;0.77;0.77;;;23.00;68.70;;;;;;5048560;28;20044;-74
2023/10/21 12:01:44;;;;;;;0.50;0.50;;;23.00;70.40;;;;;;5048431;28;20022;-70
2023/10/21 12:19:52;;;;;;;0.40;0.40;;;23.20;65.30;;;;;;5043851;28;20029;-68
2023/10/21 12:22:53;;;;;;;0.50;0.50;;;23.10;65.60;;;;;;5042316;28;20112;-71
2023/10/21 12:33:20;;;;;;;0.40;0.40;;;23.00;66.00;;;;;;5035512;28;20029;-71
2023/10/21 12:38:39;;;;;;;2.40;1.38;;;22.90;65.30;;;;;;5036545;28;20072;-70
2023/10/21 12:43:35;;;;;;;0.40;0.40;;;22.60;64.70;;;;;;5040013;28;20033;-70
2023/10/21 12:46:17;;;;;;;0.43;0.43;;;22.60;65.70;;;;;;5047221;28;20036;-70
2023/10/21 12:48:44;;;;;;;0.40;0.40;;;22.60;64.10;;;;;;5048025;28;20539;-70
2023/10/21 12:51:14;;;;;;;0.50;0.50;;;22.70;63.30;;;;;;5048527;28;20024;-70
2023/10/21 12:53:39;;;;;;;0.40;0.40;;;22.70;63.30;;;;;;5040817;28;20025;-70
2023/10/21 12:56:06;;;;;;;0.40;0.40;;;22.70;64.30;;;;;;5048744;28;20106;-70
2023/10/21 12:58:32;;;;;;;0.50;0.50;;;22.70;63.20;;;;;;5047403;28;20083;-71
2023/10/21 13:00:58;;;;;;;0.40;0.40;;;22.50;62.80;;;;;;5058861;28;20041;-71
2023/10/21 13:03:23;;;;;;;0.40;0.40;;;22.30;65.00;;;;;;5043935;28;20535;-69
2023/10/21 13:05:52;;;;;;;0.40;0.40;;;22.30;64.40;;;;;;5049398;28;20037;-70
2023/10/21 13:08:17;;;;;;;0.47;0.47;;;22.10;64.80;;;;;;5035834;28;20096;-70
2023/10/21 13:10:43;;;;;;;0.40;0.40;;;22.00;65.70;;;;;;5056214;28;20037;-74
2023/10/21 13:13:11;;;;;;;0.70;0.70;;;22.00;63.70;;;;;;5052500;28;20057;-74
2023/10/21 13:15:36;;;;;;;0.40;0.40;;;21.90;65.10;;;;;;5051027;28;20021;-76
2023/10/21 13:18:05;;;;;;;0.40;0.40;;;21.80;64.00;;;;;;5050604;28;20384;-74
2023/10/21 13:20:31;;;;;;;0.40;0.40;;;21.70;63.10;;;;;;5057190;28;20064;-75
2023/10/21 13:22:57;;;;;;;0.47;0.47;;;21.60;63.80;;;;;;5037933;28;20698;-77
2023/10/21 13:25:22;;;;;;;0.40;0.40;;;21.60;64.20;;;;;;5044562;28;20484;-75